Time;durP1;ratioP1;P1;durP2;ratioP2;P2;SDS_P1;SDS_P2;PMS_P1;PMS_P2;Temp;Humidity;BMP_temperature;BMP_pressure;BME280_temperature;BME280_humidity;BME280_pressure;Samples;Min_cycle;Max_cycle;Signal;HPM_P1;HPM_P2
2022/12/02 00:00:38;;;;;;;;;37.20;32.40;;;;;9.20;61.98;101855.03;2094802;28;45837;-64
2022/12/02 00:01:40;;;;;;;;;33.00;30.00;;;;;9.20;61.95;101857.69;2096137;28;46411;-63
2022/12/02 00:02:40;;;;;;;;;34.60;31.80;;;;;9.20;61.90;101852.38;2096136;28;46557;-62
2022/12/02 00:03:41;;;;;;;;;38.75;34.25;;;;;9.21;61.95;101847.97;2096275;28;46318;-63
2022/12/02 00:04:41;;;;;;;;;35.25;31.75;;;;;9.21;62.09;101850.63;2096051;28;46195;-64
2022/12/02 00:05:41;;;;;;;;;29.00;29.00;;;;;9.20;62.08;101843.56;2096320;28;46612;-63
2022/12/02 00:06:42;;;;;;;;;34.75;32.00;;;;;9.19;61.95;101842.69;2095928;28;46624;-64
2022/12/02 00:07:42;;;;;;;;;35.25;32.75;;;;;9.20;62.28;101848.84;2096299;28;46817;-64
2022/12/02 00:08:42;;;;;;;;;44.25;35.25;;;;;9.19;62.22;101847.97;2095904;28;47005;-63
2022/12/02 00:09:43;;;;;;;;;42.25;34.75;;;;;9.20;62.47;101838.25;2096157;28;45127;-63
2022/12/02 00:10:43;;;;;;;;;39.25;36.00;;;;;9.20;62.07;101839.16;2096216;28;46637;-64
2022/12/02 00:11:45;;;;;;;;;38.25;32.75;;;;;9.19;62.01;101840.03;2096371;28;46654;-64
2022/12/02 00:12:45;;;;;;;;;32.20;28.60;;;;;9.19;62.26;101837.38;2095666;28;45603;-63
2022/12/02 00:13:47;;;;;;;;;36.50;32.50;;;;;9.18;62.24;101834.72;2095966;28;46541;-64
2022/12/02 00:15:32;;;;;;;;;38.40;32.80;;;;;9.18;62.25;101843.56;2095779;28;46424;-64
2022/12/02 00:16:33;;;;;;;;;36.40;33.40;;;;;9.17;62.16;101838.25;2095632;28;46843;-64
2022/12/02 00:17:33;;;;;;;;;47.00;36.50;;;;;9.16;62.36;101831.19;2096332;28;46447;-64
2022/12/02 00:18:33;;;;;;;;;35.75;32.75;;;;;9.14;62.30;101837.34;2095735;28;47138;-63
2022/12/02 00:19:33;;;;;;;;;37.50;33.00;;;;;9.14;62.58;101833.81;2095757;28;46369;-64
2022/12/02 00:20:34;;;;;;;;;33.25;33.00;;;;;9.13;62.48;101826.75;2096269;28;45933;-63
2022/12/02 00:21:34;;;;;;;;;38.75;33.50;;;;;9.12;62.41;101833.81;2096025;28;46854;-64
2022/12/02 00:22:34;;;;;;;;;39.50;35.25;;;;;9.13;62.73;101826.75;2095896;28;46527;-64
2022/12/02 00:23:35;;;;;;;;;32.25;30.25;;;;;9.11;62.72;101825.88;2095845;28;46581;-63
2022/12/02 00:24:35;;;;;;;;;39.25;35.75;;;;;9.10;62.63;101827.63;2096144;28;46328;-65
2022/12/02 00:25:35;;;;;;;;;34.00;30.25;;;;;9.10;62.57;101832.94;2096029;28;46224;-64
2022/12/02 00:26:36;;;;;;;;;35.75;33.75;;;;;9.10;62.69;101824.09;2096009;28;45751;-64
2022/12/02 00:27:36;;;;;;;;;38.25;35.50;;;;;9.10;62.48;101827.63;2096079;28;46374;-65
2022/12/02 00:28:36;;;;;;;;;37.25;34.75;;;;;9.10;62.85;101821.47;2096387;28;46200;-64
2022/12/02 00:29:37;;;;;;;;;36.75;31.50;;;;;9.10;62.83;101829.41;2096246;28;46447;-64
2022/12/02 00:30:37;;;;;;;;;32.00;30.50;;;;;9.10;62.85;101830.28;2095768;28;46521;-63
2022/12/02 00:31:38;;;;;;;;;37.00;35.75;;;;;9.09;62.97;101817.94;2096018;28;46325;-64
2022/12/02 00:32:38;;;;;;;;;39.75;35.25;;;;;9.10;62.92;101826.75;2096339;28;46233;-63
2022/12/02 00:33:38;;;;;;;;;36.00;32.50;;;;;9.09;62.84;101817.94;2095206;28;46594;-63
2022/12/02 00:34:39;;;;;;;;;37.00;33.75;;;;;9.10;63.11;101822.34;2095254;28;47020;-63
2022/12/02 00:35:39;;;;;;;;;35.00;33.50;;;;;9.10;63.10;101819.69;2095681;28;46433;-64
2022/12/02 00:36:39;;;;;;;;;42.25;34.50;;;;;9.10;63.05;101822.34;2094922;28;47089;-64
2022/12/02 00:37:40;;;;;;;;;45.00;36.00;;;;;9.12;62.97;101822.34;2087879;28;46547;-63
2022/12/02 00:38:40;;;;;;;;;42.25;36.50;;;;;9.11;63.01;101820.56;2092910;28;47134;-63
2022/12/02 00:39:40;;;;;;;;;44.50;37.75;;;;;9.10;63.10;101810.88;2097111;28;46834;-65
2022/12/02 00:40:41;;;;;;;;;35.75;32.00;;;;;9.10;63.11;101811.75;2097354;28;46242;-63
2022/12/02 00:41:41;;;;;;;;;41.75;37.00;;;;;9.11;63.00;101815.28;2097318;28;46295;-65
2022/12/02 00:42:42;;;;;;;;;44.25;38.00;;;;;9.12;63.02;101814.41;2096625;28;46266;-63
2022/12/02 00:46:32;;;;;;;;;38.60;32.40;;;;;9.10;63.10;101811.75;2097952;28;46812;-64
2022/12/02 00:47:32;;;;;;;;;41.80;33.40;;;;;9.09;63.30;101807.34;2096887;28;46830;-64
2022/12/02 00:48:33;;;;;;;;;33.50;33.00;;;;;9.08;63.27;101799.41;2097400;28;46678;-65
2022/12/02 00:49:33;;;;;;;;;39.50;35.25;;;;;9.07;63.32;101806.47;2097241;28;46451;-65
2022/12/02 00:50:33;;;;;;;;;41.50;36.00;;;;;9.08;63.35;101802.03;2096487;28;46833;-63
2022/12/02 00:51:36;;;;;;;;;43.25;36.50;;;;;9.09;63.53;101798.50;2097284;28;46437;-64
2022/12/02 00:52:36;;;;;;;;;42.20;35.80;;;;;9.09;63.44;101798.50;2095711;28;46523;-61
2022/12/02 00:53:37;;;;;;;;;37.25;34.25;;;;;9.09;63.18;101802.03;2097340;28;46183;-64
2022/12/02 00:54:37;;;;;;;;;40.00;35.50;;;;;9.09;63.20;101802.03;2097083;28;46208;-65
2022/12/02 00:55:37;;;;;;;;;45.25;38.25;;;;;9.07;63.38;101794.97;2097050;28;46328;-63
2022/12/02 00:56:38;;;;;;;;;45.00;36.25;;;;;9.08;63.59;101791.44;2097249;28;46476;-63
2022/12/02 00:57:38;;;;;;;;;42.00;36.25;;;;;9.08;63.68;101791.44;2097306;28;46344;-63
2022/12/02 00:58:38;;;;;;;;;40.25;36.25;;;;;9.09;63.47;101796.75;2097520;28;46669;-64
2022/12/02 00:59:39;;;;;;;;;40.75;37.00;;;;;9.09;63.49;101803.81;2097334;28;46398;-64
2022/12/02 01:00:39;;;;;;;;;44.50;38.75;;;;;9.09;63.29;101798.50;2096739;28;46424;-63
2022/12/02 01:01:43;;;;;;;;;49.25;40.00;;;;;9.08;63.64;101804.69;2097454;28;47053;-63
2022/12/02 01:02:43;;;;;;;;;41.80;36.60;;;;;9.08;63.35;101797.63;2099399;28;45819;-63
2022/12/02 01:03:43;;;;;;;;;39.25;36.50;;;;;9.08;63.45;101802.03;2097382;28;46709;-63
2022/12/02 01:04:44;;;;;;;;;40.00;36.25;;;;;9.08;63.71;101799.41;2096843;28;46781;-63
2022/12/02 01:05:44;;;;;;;;;41.00;35.50;;;;;9.07;63.72;101794.97;2097701;28;46060;-63
2022/12/02 01:06:44;;;;;;;;;40.00;33.75;;;;;9.06;63.67;101794.09;2097564;28;46530;-64
2022/12/02 01:07:45;;;;;;;;;42.75;38.00;;;;;9.08;63.48;101794.09;2097197;28;46736;-64
2022/12/02 01:08:45;;;;;;;;;42.00;34.75;;;;;9.08;63.56;101792.34;2097307;28;46313;-64
2022/12/02 01:09:45;;;;;;;;;44.75;37.00;;;;;9.07;63.50;101790.56;2096094;28;46641;-65
2022/12/02 01:10:46;;;;;;;;;45.00;38.00;;;;;9.07;63.68;101784.41;2097292;28;46306;-65
2022/12/02 01:11:46;;;;;;;;;44.00;39.00;;;;;9.08;63.60;101794.09;2097129;28;46713;-65
2022/12/02 01:12:46;;;;;;;;;36.75;33.75;;;;;9.07;63.72;101793.22;2096744;28;46257;-64
2022/12/02 01:13:47;;;;;;;;;42.50;37.00;;;;;9.05;63.67;101789.69;2096716;28;46736;-65
2022/12/02 01:14:47;;;;;;;;;44.00;38.00;;;;;9.06;63.65;101787.94;2096905;28;46628;-64
2022/12/02 01:15:48;;;;;;;;;44.00;36.75;;;;;9.05;63.74;101791.47;2097089;28;46281;-64
2022/12/02 01:16:48;;;;;;;;;44.25;37.75;;;;;9.04;63.64;101789.69;2090397;28;46290;-63
2022/12/02 01:17:49;;;;;;;;;49.25;39.00;;;;;9.04;63.69;101787.03;2092932;28;46802;-64
2022/12/02 01:18:49;;;;;;;;;43.75;38.50;;;;;9.03;63.57;101794.09;2097287;28;46298;-64
2022/12/02 01:19:49;;;;;;;;;41.50;35.25;;;;;9.05;63.65;101791.47;2097349;28;46245;-64
2022/12/02 01:20:50;;;;;;;;;40.50;35.50;;;;;9.05;63.77;101787.03;2097418;28;46296;-64
2022/12/02 01:21:50;;;;;;;;;46.75;36.50;;;;;9.05;63.88;101786.16;2097193;28;46492;-64
2022/12/02 01:22:50;;;;;;;;;46.25;36.00;;;;;9.05;63.80;101787.03;2097342;28;46254;-65
2022/12/02 01:23:51;;;;;;;;;49.75;39.00;;;;;9.04;63.76;101790.56;2096587;28;46941;-64
2022/12/02 01:24:51;;;;;;;;;39.75;36.50;;;;;9.05;63.65;101787.03;2095977;28;46750;-64
2022/12/02 01:25:51;;;;;;;;;42.50;36.50;;;;;9.05;63.73;101789.69;2095913;28;45942;-63
2022/12/02 01:26:52;;;;;;;;;39.75;36.50;;;;;9.06;63.71;101785.28;2097353;28;46443;-62
2022/12/02 01:27:52;;;;;;;;;40.75;35.25;;;;;9.05;63.65;101789.69;2097180;28;46697;-64
2022/12/02 01:28:52;;;;;;;;;41.75;36.75;;;;;9.06;63.87;101791.47;2097343;28;46106;-64
2022/12/02 01:29:53;;;;;;;;;43.00;36.25;;;;;9.05;63.63;101783.50;2097072;28;45899;-64
2022/12/02 01:30:53;;;;;;;;;46.50;37.75;;;;;9.05;63.84;101779.09;2097139;28;45597;-64
2022/12/02 01:31:54;;;;;;;;;43.50;35.00;;;;;9.04;63.86;101785.28;2097412;28;46842;-63
2022/12/02 01:32:54;;;;;;;;;38.20;35.40;;;;;9.04;63.72;101782.63;2097321;28;46525;-65
2022/12/02 01:33:55;;;;;;;;;44.50;36.75;;;;;9.03;63.63;101794.09;2096873;28;46676;-64
2022/12/02 01:34:55;;;;;;;;;42.00;36.75;;;;;9.03;63.85;101794.09;2096981;28;46149;-63
2022/12/02 01:35:55;;;;;;;;;41.75;33.50;;;;;9.03;63.85;101788.81;2096900;28;46408;-62
2022/12/02 01:36:56;;;;;;;;;50.25;39.00;;;;;9.02;63.84;101789.69;2097513;28;46265;-64
2022/12/02 01:37:56;;;;;;;;;40.25;35.75;;;;;9.03;63.76;101793.22;2097291;28;46382;-63
2022/12/02 01:38:57;;;;;;;;;48.75;40.00;;;;;9.03;63.77;101793.22;2096861;28;46408;-64
2022/12/02 01:39:57;;;;;;;;;40.25;35.25;;;;;9.03;63.74;101790.56;2096895;28;46459;-64
2022/12/02 01:40:58;;;;;;;;;40.50;32.75;;;;;9.03;64.01;101793.22;2095021;28;46444;-64
2022/12/02 01:41:58;;;;;;;;;44.40;36.00;;;;;9.03;63.74;101786.16;2097227;28;46405;-66
2022/12/02 01:42:59;;;;;;;;;46.00;39.00;;;;;9.03;63.77;101793.22;2095649;28;45649;-64
2022/12/02 01:43:59;;;;;;;;;43.00;37.50;;;;;9.03;63.96;101794.09;2097128;28;46645;-65
2022/12/02 01:45:00;;;;;;;;;43.50;35.00;;;;;9.04;63.80;101795.00;2097109;28;46360;-65
2022/12/02 01:46:01;;;;;;;;;43.25;38.00;;;;;9.05;63.76;101792.34;2096884;28;46762;-65
2022/12/02 01:47:02;;;;;;;;;47.00;38.20;;;;;9.05;63.70;101791.47;2096983;28;46363;-65
2022/12/02 01:48:03;;;;;;;;;43.50;37.75;;;;;9.05;63.88;101792.34;2096838;28;46721;-64
2022/12/02 01:49:03;;;;;;;;;43.80;37.00;;;;;9.06;63.71;101796.75;2096949;28;47251;-63
2022/12/02 01:50:06;;;;;;;;;45.75;38.25;;;;;9.05;63.73;101799.41;2097076;28;46492;-65
2022/12/02 01:51:07;;;;;;;;;45.00;36.80;;;;;9.04;63.72;101795.88;2096787;28;46702;-63
2022/12/02 01:52:08;;;;;;;;;48.50;38.25;;;;;9.05;63.72;101802.03;2099909;28;47052;-65
2022/12/02 01:53:08;;;;;;;;;48.25;38.25;;;;;9.04;63.73;101800.28;2098539;27;46111;-64
2022/12/02 01:54:08;;;;;;;;;43.25;37.25;;;;;9.01;63.95;101800.25;2102330;28;46313;-64
2022/12/02 01:55:18;;;;;;;;;40.25;36.25;;;;;9.03;63.82;101802.06;2096645;28;46356;-64
2022/12/02 01:56:18;;;;;;;;;45.60;38.60;;;;;9.02;63.89;101800.28;2093242;28;46297;-64
2022/12/02 01:57:24;;;;;;;;;53.00;41.75;;;;;9.01;63.89;101798.50;2096704;28;46216;-65
2022/12/02 01:58:27;;;;;;;;;46.00;39.20;;;;;9.01;63.75;101794.97;2096780;28;47008;-65
2022/12/02 01:59:27;;;;;;;;;45.80;37.00;;;;;9.01;63.96;101797.59;2095942;28;46490;-65
2022/12/02 02:00:28;;;;;;;;;45.25;38.25;;;;;9.01;63.83;101794.97;2096046;28;46252;-63
2022/12/02 02:01:33;;;;;;;;;41.60;36.20;;;;;9.01;64.10;101793.19;2095939;28;46931;-63
2022/12/02 02:02:38;;;;;;;;;36.60;33.40;;;;;9.02;64.18;101800.28;2097013;28;46184;-64
2022/12/02 02:03:39;;;;;;;;;38.40;33.60;;;;;9.04;63.84;101802.94;2097224;28;45586;-64
2022/12/02 02:04:39;;;;;;;;;48.25;39.00;;;;;9.04;63.94;101805.56;2096907;28;46397;-63
2022/12/02 02:05:40;;;;;;;;;43.75;38.50;;;;;9.04;63.93;101798.53;2096606;28;46527;-62
2022/12/02 02:06:42;;;;;;;;;42.50;36.25;;;;;9.04;63.92;101795.88;2096930;28;46212;-64
2022/12/02 02:07:45;;;;;;;;;49.80;40.40;;;;;9.05;63.85;101799.41;2096892;28;46830;-64
2022/12/02 02:08:46;;;;;;;;;45.60;36.40;;;;;9.02;63.71;101795.00;2096805;28;46610;-64
2022/12/02 02:09:46;;;;;;;;;46.50;37.00;;;;;9.03;64.22;101799.41;2096246;28;46768;-65
2022/12/02 02:10:47;;;;;;;;;37.75;35.50;;;;;9.02;63.66;101802.00;2096772;28;46803;-66
2022/12/02 02:11:48;;;;;;;;;40.00;34.40;;;;;9.01;63.65;101806.44;2096935;28;45133;-64
2022/12/02 02:12:50;;;;;;;;;44.00;37.50;;;;;9.01;63.72;101802.91;2096941;28;45742;-65
2022/12/02 02:13:51;;;;;;;;;48.80;37.20;;;;;9.00;64.00;101807.31;2095631;28;46646;-65
2022/12/02 02:14:52;;;;;;;;;42.25;37.25;;;;;9.00;63.78;101803.78;2096499;28;46882;-65
2022/12/02 02:15:52;;;;;;;;;46.80;39.20;;;;;9.00;63.76;101802.03;2096615;28;46810;-65
2022/12/02 02:16:53;;;;;;;;;52.75;38.75;;;;;8.99;63.89;101794.06;2096799;28;46551;-65
2022/12/02 02:17:57;;;;;;;;;45.00;38.50;;;;;8.99;63.80;101789.66;2096885;28;46419;-65
2022/12/02 02:18:57;;;;;;;;;38.80;35.20;;;;;9.00;63.64;101785.25;2097024;28;46954;-65
2022/12/02 02:19:58;;;;;;;;;45.50;38.75;;;;;9.00;63.78;101779.94;2096995;28;46385;-65
2022/12/02 02:20:59;;;;;;;;;37.75;35.00;;;;;8.99;63.87;101775.53;2096644;28;46474;-64
2022/12/02 02:22:00;;;;;;;;;42.00;36.40;;;;;8.99;63.82;101776.44;2096294;28;46497;-65
2022/12/02 02:23:03;;;;;;;;;44.20;38.40;;;;;9.01;63.74;101776.41;2096970;28;46476;-65
2022/12/02 02:24:04;;;;;;;;;46.20;38.60;;;;;9.00;63.67;101772.00;2096524;28;46691;-65
2022/12/02 02:25:14;;;;;;;;;44.00;36.00;;;;;8.99;63.74;101778.19;2078878;28;45907;-64
2022/12/02 02:26:14;;;;;;;;;48.20;38.00;;;;;8.98;63.58;101781.72;2081274;28;46658;-65
2022/12/02 02:27:15;;;;;;;;;43.75;36.00;;;;;8.98;63.69;101776.44;2096979;28;46484;-64
2022/12/02 02:28:16;;;;;;;;;41.75;36.00;;;;;8.98;63.59;101785.25;2096946;28;46676;-64
2022/12/02 02:29:16;;;;;;;;;46.60;36.80;;;;;8.97;63.78;101780.84;2096811;28;46616;-65
2022/12/02 02:30:17;;;;;;;;;38.25;35.00;;;;;8.97;63.58;101779.97;2096650;28;46907;-65
2022/12/02 02:31:18;;;;;;;;;41.75;36.50;;;;;8.97;63.76;101780.84;2093021;28;46536;-65
2022/12/02 02:32:18;;;;;;;;;41.25;36.50;;;;;8.97;63.62;101775.53;2095070;28;46894;-65
2022/12/02 02:33:21;;;;;;;;;36.50;31.00;;;;;8.97;63.55;101772.00;2096925;28;46108;-64
2022/12/02 02:34:21;;;;;;;;;44.80;38.20;;;;;8.98;63.52;101772.00;2096820;28;46487;-64
2022/12/02 02:35:22;;;;;;;;;46.75;38.75;;;;;8.98;63.64;101768.47;2096811;28;46507;-64
2022/12/02 02:36:22;;;;;;;;;42.25;35.50;;;;;8.98;63.60;101769.38;2096576;28;46746;-64
2022/12/02 02:37:24;;;;;;;;;42.00;38.00;;;;;8.97;63.66;101767.59;2096899;28;45784;-65
2022/12/02 02:38:26;;;;;;;;;45.60;36.60;;;;;8.97;63.52;101766.72;2096472;28;46469;-63
2022/12/02 02:39:27;;;;;;;;;39.40;35.00;;;;;8.96;63.55;101771.13;2096955;28;47118;-64
2022/12/02 02:40:28;;;;;;;;;44.00;36.00;;;;;8.96;63.55;101765.84;2096157;28;46426;-64
2022/12/02 02:41:29;;;;;;;;;45.00;37.80;;;;;8.94;63.53;101767.59;2095880;28;46762;-65
2022/12/02 02:42:29;;;;;;;;;38.25;34.75;;;;;8.93;63.59;101763.19;2096863;28;46450;-64
2022/12/02 02:43:31;;;;;;;;;42.00;36.75;;;;;8.93;63.50;101765.84;2096750;28;46790;-64
2022/12/02 02:44:31;;;;;;;;;40.00;35.80;;;;;8.91;63.48;101761.44;2097334;28;45292;-65
2022/12/02 02:45:35;;;;;;;;;44.75;37.50;;;;;8.91;63.63;101762.31;2096707;28;46431;-63
2022/12/02 02:46:35;;;;;;;;;38.20;35.00;;;;;8.91;63.53;101756.13;2096106;28;46389;-65
2022/12/02 02:47:36;;;;;;;;;50.75;39.00;;;;;8.90;63.53;101760.53;2096936;28;46552;-65
2022/12/02 02:48:38;;;;;;;;;43.50;35.00;;;;;8.90;63.75;101759.66;2096689;28;46627;-66
2022/12/02 02:49:38;;;;;;;;;49.60;37.20;;;;;8.89;63.58;101756.09;2095667;28;45365;-65
2022/12/02 02:50:41;;;;;;;;;38.50;35.75;;;;;8.89;63.64;101750.81;2095047;28;46932;-66
2022/12/02 02:51:42;;;;;;;;;44.60;39.00;;;;;8.89;63.59;101752.56;2095833;28;46677;-67
2022/12/02 02:52:42;;;;;;;;;37.50;34.75;;;;;8.90;63.67;101751.72;2095869;28;47064;-66
2022/12/02 02:53:43;;;;;;;;;46.50;39.00;;;;;8.90;63.73;101755.25;2095947;28;46502;-65
2022/12/02 02:54:43;;;;;;;;;43.50;36.75;;;;;8.89;63.56;101748.16;2095652;28;46483;-65
2022/12/02 02:55:44;;;;;;;;;38.00;36.00;;;;;8.89;63.56;101750.81;2095498;28;46292;-63
2022/12/02 02:56:44;;;;;;;;;41.75;35.75;;;;;8.89;63.74;101752.56;2095918;28;46646;-65
2022/12/02 02:57:45;;;;;;;;;41.25;36.50;;;;;8.89;63.69;101758.75;2096120;28;46838;-65
2022/12/02 02:58:45;;;;;;;;;45.00;38.75;;;;;8.89;63.73;101747.28;2094781;28;46302;-64
2022/12/02 02:59:50;;;;;;;;;38.25;34.75;;;;;8.89;63.63;101753.44;2095300;28;46585;-64
2022/12/02 03:00:58;;;;;;;;;44.00;36.20;;;;;8.89;63.48;101753.44;2095021;28;47169;-65
2022/12/02 03:02:09;;;;;;;;;46.20;37.00;;;;;8.90;63.53;101744.66;2097081;28;46718;-64
2022/12/02 03:03:13;;;;;;;;;39.20;35.20;;;;;8.91;63.72;101750.84;2096612;28;46694;-64
2022/12/02 03:04:16;;;;;;;;;47.00;39.20;;;;;8.92;63.61;101749.97;2096521;28;46419;-65
2022/12/02 03:05:19;;;;;;;;;43.60;38.20;;;;;8.92;63.59;101742.91;2096505;28;46481;-64
2022/12/02 03:06:20;;;;;;;;;43.40;35.20;;;;;8.93;63.60;101744.66;2096328;28;46579;-64
2022/12/02 03:07:21;;;;;;;;;43.40;38.20;;;;;8.93;63.55;101741.13;2096426;28;45798;-65
2022/12/02 03:08:22;;;;;;;;;44.00;38.50;;;;;8.94;63.43;101740.25;2096459;28;46504;-63
2022/12/02 03:09:23;;;;;;;;;46.20;37.60;;;;;8.94;63.51;101737.59;2096369;28;46292;-65
2022/12/02 03:10:24;;;;;;;;;48.00;37.00;;;;;8.93;63.47;101739.38;2089568;28;45742;-66
2022/12/02 03:11:26;;;;;;;;;40.75;35.00;;;;;8.93;63.36;101741.13;2096510;28;46347;-63
2022/12/02 03:12:27;;;;;;;;;40.60;32.40;;;;;8.92;63.32;101737.59;2096453;28;46281;-65
2022/12/02 03:13:30;;;;;;;;;43.00;36.25;;;;;8.93;63.41;101735.84;2096448;28;46615;-64
2022/12/02 03:14:30;;;;;;;;;38.20;35.20;;;;;8.93;63.58;101738.47;2096201;28;46614;-65
2022/12/02 03:15:32;;;;;;;;;45.00;37.75;;;;;8.91;63.63;101738.47;2096551;28;45577;-65
2022/12/02 03:16:32;;;;;;;;;40.40;33.00;;;;;8.92;63.53;101737.59;2095413;28;47214;-63
2022/12/02 03:17:33;;;;;;;;;41.50;36.00;;;;;8.92;63.43;101745.53;2095626;28;46256;-64
2022/12/02 03:18:34;;;;;;;;;44.50;39.00;;;;;8.93;63.63;101738.47;2098564;28;46614;-64
2022/12/02 03:19:36;;;;;;;;;42.20;36.40;;;;;8.91;63.57;101741.13;2097953;27;46527;-63
2022/12/02 03:20:36;;;;;;;;;41.20;36.80;;;;;8.93;63.43;101744.66;2096512;28;46862;-64
2022/12/02 03:21:37;;;;;;;;;39.25;35.25;;;;;8.93;63.39;101734.06;2096271;28;46824;-63
2022/12/02 03:22:37;;;;;;;;;42.75;34.50;;;;;8.92;63.53;101742.91;2095906;28;45737;-64
2022/12/02 03:23:38;;;;;;;;;39.50;34.00;;;;;8.94;63.69;101734.94;2096816;28;45473;-64
2022/12/02 03:24:39;;;;;;;;;39.50;37.00;;;;;8.94;63.37;101743.78;2096332;28;46811;-64
2022/12/02 03:25:40;;;;;;;;;43.75;39.25;;;;;8.94;63.68;101733.19;2096097;28;46438;-65
2022/12/02 03:26:41;;;;;;;;;47.00;37.25;;;;;8.96;63.54;101738.47;2096468;28;46780;-65
2022/12/02 03:27:41;;;;;;;;;43.60;35.80;;;;;8.97;63.37;101735.84;2096147;28;46835;-65
2022/12/02 03:28:42;;;;;;;;;40.25;34.00;;;;;8.99;63.59;101733.19;2096377;28;46786;-65
2022/12/02 03:29:43;;;;;;;;;43.75;36.50;;;;;8.97;63.54;101733.19;2096411;28;46670;-63
2022/12/02 03:30:44;;;;;;;;;48.25;35.25;;;;;8.97;63.45;101730.53;2095844;28;46837;-63
2022/12/02 03:31:45;;;;;;;;;44.20;36.00;;;;;8.99;63.57;101736.72;2095564;28;46478;-65
2022/12/02 03:32:45;;;;;;;;;39.40;35.60;;;;;9.00;63.22;101724.34;2096132;28;46719;-65
2022/12/02 03:33:47;;;;;;;;;42.50;35.50;;;;;9.00;63.08;101727.88;2096338;28;45879;-64
2022/12/02 03:34:47;;;;;;;;;45.40;36.60;;;;;9.00;63.42;101725.22;2086640;28;46566;-64
2022/12/02 03:35:48;;;;;;;;;41.75;36.00;;;;;9.01;63.51;101723.47;2087335;28;46737;-64
2022/12/02 03:36:49;;;;;;;;;45.60;36.60;;;;;9.01;63.21;101723.47;2096195;28;46957;-65
2022/12/02 03:37:49;;;;;;;;;42.50;36.00;;;;;9.01;63.40;101723.47;2090848;28;46227;-63
2022/12/02 03:38:50;;;;;;;;;44.25;38.25;;;;;9.01;63.19;101718.19;2096258;28;46918;-64
2022/12/02 03:39:50;;;;;;;;;41.75;35.50;;;;;9.00;63.23;101722.59;2095946;28;45662;-65
2022/12/02 03:40:52;;;;;;;;;48.75;37.50;;;;;8.99;63.09;101726.13;2096349;28;46511;-64
2022/12/02 03:41:53;;;;;;;;;43.60;36.00;;;;;8.99;63.08;101727.88;2096149;28;46564;-65
2022/12/02 03:42:53;;;;;;;;;48.50;39.00;;;;;8.98;63.35;101727.00;2096470;28;46242;-65
2022/12/02 03:43:56;;;;;;;;;43.25;39.00;;;;;8.97;63.21;101719.94;2095984;28;46353;-65
2022/12/02 03:44:56;;;;;;;;;41.80;35.40;;;;;8.98;63.13;101720.81;2096404;28;46089;-64
2022/12/02 03:45:58;;;;;;;;;39.50;35.25;;;;;8.97;63.26;101717.31;2096045;28;46641;-65
2022/12/02 03:46:58;;;;;;;;;41.60;35.00;;;;;8.97;63.21;101722.59;2095933;28;46631;-67
2022/12/02 03:47:59;;;;;;;;;47.50;39.75;;;;;8.96;63.25;101720.84;2096125;28;46345;-63
2022/12/02 03:49:01;;;;;;;;;37.50;33.50;;;;;8.96;63.37;101714.66;2096306;28;46352;-65
2022/12/02 03:50:01;;;;;;;;;48.20;38.40;;;;;8.96;63.37;101715.53;2095908;28;46624;-64
2022/12/02 03:51:02;;;;;;;;;40.50;36.25;;;;;8.97;63.22;101716.41;2096323;28;46640;-64
2022/12/02 03:52:03;;;;;;;;;42.00;36.00;;;;;8.98;63.44;101710.25;2095951;28;46397;-64
2022/12/02 03:53:03;;;;;;;;;42.00;36.00;;;;;8.97;63.29;101706.72;2097000;28;47287;-64
2022/12/02 03:54:04;;;;;;;;;41.50;36.50;;;;;8.99;63.24;101712.00;2096360;28;46657;-64
2022/12/02 03:55:06;;;;;;;;;66.50;51.00;;;;;8.98;63.19;101710.25;2096179;28;46936;-65
2022/12/02 03:56:08;;;;;;;;;52.00;42.40;;;;;8.97;63.31;101706.72;2096157;28;46219;-65
2022/12/02 03:57:08;;;;;;;;;46.40;38.60;;;;;8.97;63.22;101704.06;2095651;28;46984;-63
2022/12/02 03:58:09;;;;;;;;;48.75;38.75;;;;;8.99;63.14;101710.22;2096025;28;46533;-65
2022/12/02 03:59:17;;;;;;;;;46.75;36.75;;;;;8.98;63.16;101708.47;2095754;28;46250;-65
2022/12/02 04:00:18;;;;;;;;;43.20;35.60;;;;;8.98;63.29;101705.81;2094861;28;46821;-64
2022/12/02 04:01:20;;;;;;;;;40.00;36.75;;;;;8.98;63.19;101710.25;2095942;28;46319;-63
2022/12/02 04:02:20;;;;;;;;;43.20;35.60;;;;;8.97;63.35;101712.00;2095979;28;45627;-63
2022/12/02 04:03:21;;;;;;;;;40.75;35.25;;;;;8.97;63.29;101706.72;2096044;28;47043;-62
2022/12/02 04:04:21;;;;;;;;;41.50;35.75;;;;;8.99;63.16;101714.66;2095605;28;45734;-64
2022/12/02 04:05:22;;;;;;;;;47.00;39.50;;;;;8.98;63.08;101710.25;2096388;28;45798;-64
2022/12/02 04:06:22;;;;;;;;;48.50;39.75;;;;;8.98;63.09;101707.59;2096645;28;44976;-63
2022/12/02 04:07:22;;;;;;;;;42.50;36.75;;;;;8.97;63.26;101708.47;2086325;28;47106;-65
2022/12/02 04:08:23;;;;;;;;;43.25;39.25;;;;;8.96;63.15;101707.59;2086912;28;45946;-64
2022/12/02 04:09:23;;;;;;;;;37.75;35.00;;;;;8.96;63.22;101699.66;2096229;28;46375;-64
2022/12/02 04:10:24;;;;;;;;;45.75;35.50;;;;;8.96;63.22;101702.31;2096153;28;46131;-64
2022/12/02 04:11:24;;;;;;;;;50.50;40.00;;;;;8.97;63.33;101705.81;2097546;28;46318;-64
2022/12/02 04:12:24;;;;;;;;;39.50;34.50;;;;;8.96;63.33;101696.13;2097057;28;46143;-64
2022/12/02 04:13:25;;;;;;;;;37.00;35.25;;;;;8.96;63.27;101694.34;2097960;28;45035;-65
2022/12/02 04:14:25;;;;;;;;;46.00;39.00;;;;;8.97;63.17;101696.13;2097568;28;46284;-65
2022/12/02 04:15:26;;;;;;;;;44.00;37.50;;;;;8.98;63.16;101692.59;2097524;28;46038;-63
2022/12/02 04:16:26;;;;;;;;;38.25;34.00;;;;;8.97;63.22;101688.19;2097315;28;46304;-63
2022/12/02 04:17:26;;;;;;;;;44.00;36.25;;;;;8.97;63.17;101685.53;2097308;28;46046;-65
2022/12/02 04:18:26;;;;;;;;;45.75;36.75;;;;;8.98;62.95;101681.13;2097674;28;46658;-63
2022/12/02 04:19:27;;;;;;;;;35.50;33.25;;;;;8.97;63.29;101680.22;2097735;28;48155;-63
2022/12/02 04:20:27;;;;;;;;;48.00;39.25;;;;;8.97;63.35;101682.88;2097689;28;45515;-63
2022/12/02 04:21:27;;;;;;;;;44.75;38.75;;;;;8.98;63.10;101679.34;2097819;28;45942;-64
2022/12/02 04:22:28;;;;;;;;;45.25;35.50;;;;;8.99;63.26;101680.22;2096149;28;46558;-63
2022/12/02 04:23:28;;;;;;;;;50.50;39.25;;;;;8.99;63.31;101678.47;2097491;28;45802;-65
2022/12/02 04:24:28;;;;;;;;;50.00;40.25;;;;;8.98;63.25;101684.66;2097122;28;46621;-63
2022/12/02 04:25:29;;;;;;;;;47.00;36.75;;;;;8.99;63.01;101677.59;2097059;28;46736;-64
2022/12/02 04:26:29;;;;;;;;;40.25;35.75;;;;;8.98;63.35;101679.34;2098993;28;46672;-63
2022/12/02 04:27:29;;;;;;;;;44.50;38.00;;;;;8.99;63.29;101678.47;2090055;28;46903;-63
2022/12/02 04:28:30;;;;;;;;;47.00;39.00;;;;;8.98;63.22;101668.75;2089147;28;46609;-63
2022/12/02 04:29:30;;;;;;;;;47.50;36.75;;;;;8.99;63.32;101672.28;2096743;28;46934;-66
2022/12/02 04:30:30;;;;;;;;;45.00;40.00;;;;;8.98;63.13;101675.81;2097623;28;46300;-63
2022/12/02 04:31:31;;;;;;;;;41.75;36.00;;;;;8.97;63.10;101680.22;2097313;28;46600;-64
2022/12/02 04:32:31;;;;;;;;;42.00;35.50;;;;;8.97;63.17;101676.72;2097275;28;46226;-64
2022/12/02 04:33:31;;;;;;;;;42.75;36.00;;;;;8.95;63.19;101684.66;2097313;28;46558;-64
2022/12/02 04:34:32;;;;;;;;;39.00;33.25;;;;;8.94;63.17;101685.53;2097903;28;47149;-63
2022/12/02 04:35:32;;;;;;;;;37.75;35.50;;;;;8.95;63.33;101679.34;2097400;28;46796;-64
2022/12/02 04:36:32;;;;;;;;;45.00;36.75;;;;;8.94;63.40;101682.88;2089823;28;47076;-64
2022/12/02 04:37:33;;;;;;;;;39.75;34.00;;;;;8.95;63.47;101678.47;2087589;28;46230;-64
2022/12/02 04:38:33;;;;;;;;;48.25;39.25;;;;;8.95;63.33;101682.00;2097272;28;46340;-63
2022/12/02 04:39:33;;;;;;;;;37.50;33.50;;;;;8.96;63.21;101685.53;2096032;28;46469;-64
2022/12/02 04:40:34;;;;;;;;;51.00;39.75;;;;;8.95;63.21;101684.66;2096505;28;46910;-64
2022/12/02 04:41:34;;;;;;;;;12.50;10.50;;;;;8.96;63.39;101682.88;2097098;28;46235;-63
2022/12/02 04:42:34;;;;;;;;;45.00;36.00;;;;;8.93;63.19;101691.72;2097436;28;46453;-64
2022/12/02 04:43:35;;;;;;;;;46.75;38.00;;;;;8.94;63.13;101687.31;2099523;28;47038;-65